Time;durP1;ratioP1;P1;durP2;ratioP2;P2;SDS_P1;SDS_P2;PMS_P1;PMS_P2;Temp;Humidity;BMP_temperature;BMP_pressure;BME280_temperature;BME280_humidity;BME280_pressure;Samples;Min_cycle;Max_cycle;Signal;HPM_P1;HPM_P2
2022/12/14 00:01:52;;;;;;;0.73;0.37;;;-1.20;1.00;;;;;;6067630;23;20922;-73
2022/12/14 00:04:20;;;;;;;0.50;0.10;;;-1.20;1.00;;;;;;6066938;23;20414;-74
2022/12/14 00:06:48;;;;;;;0.50;0.23;;;-1.10;1.00;;;;;;6067225;23;20407;-74
2022/12/14 00:09:17;;;;;;;0.50;0.10;;;-1.10;1.00;;;;;;6067195;23;20408;-73
2022/12/14 00:11:45;;;;;;;0.50;0.10;;;-1.00;1.00;;;;;;6067165;23;20967;-73
2022/12/14 00:14:13;;;;;;;0.50;0.10;;;-1.00;1.00;;;;;;6068107;23;20463;-72
2022/12/14 00:16:40;;;;;;;0.50;0.10;;;-0.90;1.00;;;;;;6070682;23;20571;-72
2022/12/14 00:19:11;;;;;;;0.50;0.10;;;-0.90;1.00;;;;;;6069521;23;20822;-74
2022/12/14 00:21:39;;;;;;;0.50;0.10;;;-0.90;1.00;;;;;;6067019;23;20420;-75
2022/12/14 00:24:07;;;;;;;0.50;0.10;;;-0.90;1.00;;;;;;6066645;23;20415;-75
2022/12/14 00:26:36;;;;;;;0.93;0.93;;;-0.90;1.00;;;;;;6066931;23;20410;-75
2022/12/14 00:29:04;;;;;;;0.50;0.20;;;-0.90;1.00;;;;;;6067054;23;20411;-75
2022/12/14 00:31:32;;;;;;;0.60;0.50;;;-0.90;1.00;;;;;;6066831;23;20428;-74
2022/12/14 00:34:00;;;;;;;0.50;0.10;;;-0.90;1.00;;;;;;6066558;23;20415;-75
2022/12/14 00:36:30;;;;;;;0.50;0.20;;;-0.90;1.00;;;;;;6066687;23;20407;-74
2022/12/14 00:38:58;;;;;;;0.50;0.10;;;-0.90;1.00;;;;;;6066564;23;20404;-73
2022/12/14 00:41:26;;;;;;;0.50;0.10;;;-0.80;1.00;;;;;;6066318;23;21023;-74
2022/12/14 00:43:55;;;;;;;0.50;0.10;;;-0.80;1.00;;;;;;6066561;23;20411;-74
2022/12/14 00:46:23;;;;;;;0.50;0.10;;;-0.90;1.00;;;;;;6066848;23;20415;-73
2022/12/14 00:48:51;;;;;;;0.50;0.10;;;-0.80;1.00;;;;;;6066861;23;20408;-74
2022/12/14 00:51:19;;;;;;;0.50;0.27;;;-0.80;1.00;;;;;;6066350;23;20428;-73
2022/12/14 00:53:46;;;;;;;1.27;1.20;;;-0.90;1.00;;;;;;6065786;23;20897;-73
2022/12/14 00:56:15;;;;;;;0.50;0.10;;;-0.80;1.00;;;;;;6066863;23;20415;-74
2022/12/14 00:58:42;;;;;;;0.50;0.20;;;-0.80;1.00;;;;;;6066822;23;20408;-74
2022/12/14 05:02:41;;;;;;;0.50;0.10;;;-0.70;1.00;;;;;;6049592;23;20994;-77
2022/12/14 05:05:14;;;;;;;0.50;0.10;;;-0.50;1.00;;;;;;6067363;23;20412;-77
2022/12/14 05:07:50;;;;;;;0.60;0.20;;;-0.70;1.00;;;;;;6069299;23;20419;-77
2022/12/14 05:10:23;;;;;;;0.50;0.10;;;-0.80;1.00;;;;;;6069418;23;20415;-77
2022/12/14 05:13:00;;;;;;;1.47;1.37;;;-0.70;1.00;;;;;;6039139;23;20404;-77
2022/12/14 05:15:34;;;;;;;0.50;0.10;;;-0.80;1.00;;;;;;6058973;23;20530;-78
2022/12/14 05:18:04;;;;;;;0.50;0.10;;;-0.80;1.00;;;;;;6074326;23;20415;-78
2022/12/14 05:20:33;;;;;;;0.50;0.10;;;-0.80;1.00;;;;;;6075151;23;20470;-79
2022/12/14 05:23:00;;;;;;;0.50;0.10;;;-0.80;1.00;;;;;;6076101;23;20411;-79
2022/12/14 05:25:28;;;;;;;0.50;0.10;;;-0.70;1.00;;;;;;6077366;23;20435;-79
2022/12/14 05:27:57;;;;;;;0.50;0.10;;;-0.70;1.00;;;;;;6084013;23;20419;-78
2022/12/14 05:30:24;;;;;;;0.50;0.10;;;-0.70;1.00;;;;;;6092003;23;20392;-76
2022/12/14 05:32:53;;;;;;;1.80;1.70;;;-0.70;1.00;;;;;;6092230;23;20455;-78
2022/12/14 05:35:22;;;;;;;0.50;0.10;;;-0.70;1.00;;;;;;6088119;23;20431;-77
2022/12/14 05:37:50;;;;;;;0.50;0.10;;;-0.70;1.00;;;;;;6090543;23;20404;-77
2022/12/14 05:40:18;;;;;;;0.50;0.10;;;-0.70;1.00;;;;;;6083477;23;20447;-79
2022/12/14 05:42:46;;;;;;;0.60;0.60;;;-0.70;1.00;;;;;;6075299;23;20411;-78
2022/12/14 05:45:22;;;;;;;0.50;0.10;;;-0.70;1.00;;;;;;6077840;23;20431;-78
2022/12/14 05:47:49;;;;;;;0.50;0.10;;;-0.70;1.00;;;;;;6083580;23;20539;-79
2022/12/14 05:50:17;;;;;;;0.50;0.10;;;-0.70;1.00;;;;;;6087197;23;20400;-79
2022/12/14 05:52:47;;;;;;;0.50;0.10;;;-0.70;1.00;;;;;;6083474;23;20410;-78
2022/12/14 05:55:15;;;;;;;0.50;0.10;;;-0.70;1.00;;;;;;6077433;23;20428;-78
2022/12/14 05:57:42;;;;;;;0.50;0.10;;;-0.70;1.00;;;;;;6074901;23;20419;-78
2022/12/14 06:00:12;;;;;;;0.50;0.10;;;-0.70;1.00;;;;;;6086327;23;20435;-76
2022/12/14 06:02:39;;;;;;;33.63;11.43;;;-0.70;1.00;;;;;;6094084;23;20388;-77
2022/12/14 06:05:08;;;;;;;2.33;2.23;;;-0.60;1.00;;;;;;6094731;23;20418;-77
2022/12/14 06:07:36;;;;;;;1.40;1.37;;;-0.60;1.00;;;;;;6090969;23;20419;-79
2022/12/14 06:10:06;;;;;;;0.50;0.10;;;-0.60;1.00;;;;;;6082256;23;20407;-80
2022/12/14 06:12:34;;;;;;;0.50;0.10;;;-0.60;1.00;;;;;;6084708;23;20400;-77
2022/12/14 06:15:03;;;;;;;0.50;0.10;;;-0.60;1.00;;;;;;6091981;23;20440;-78
2022/12/14 06:17:31;;;;;;;0.50;0.10;;;-0.60;1.00;;;;;;6082824;23;20421;-78
2022/12/14 06:19:59;;;;;;;1.90;1.80;;;-0.60;1.00;;;;;;6080495;23;20491;-80
2022/12/14 06:22:27;;;;;;;0.50;0.20;;;-0.50;1.00;;;;;;6077310;23;20427;-78
2022/12/14 06:24:55;;;;;;;0.50;0.30;;;-0.60;1.00;;;;;;6082119;23;20474;-80
2022/12/14 06:27:24;;;;;;;0.50;0.10;;;-0.60;1.00;;;;;;6083521;23;20407;-77
2022/12/14 06:29:52;;;;;;;0.87;0.63;;;-0.60;1.00;;;;;;6079817;23;20411;-79
2022/12/14 06:32:20;;;;;;;0.60;0.57;;;-0.50;1.00;;;;;;6078290;23;20411;-78
2022/12/14 06:34:47;;;;;;;0.50;0.10;;;-0.50;1.00;;;;;;6076974;23;20438;-77
2022/12/14 06:37:15;;;;;;;0.50;0.10;;;-0.50;1.00;;;;;;6078682;23;20416;-79
2022/12/14 06:39:43;;;;;;;1.17;1.07;;;-0.30;1.00;;;;;;6075301;23;20459;-79
2022/12/14 06:42:19;;;;;;;0.50;0.10;;;-0.50;1.00;;;;;;6078176;23;20932;-79
2022/12/14 06:44:48;;;;;;;0.70;0.63;;;-0.50;1.00;;;;;;6080124;23;20820;-79
2022/12/14 06:47:17;;;;;;;0.50;0.10;;;-0.50;1.00;;;;;;6078881;23;20426;-79
2022/12/14 06:49:45;;;;;;;0.50;0.10;;;;;;;;;;6077889;23;20773;-82
2022/12/14 06:52:16;;;;;;;0.50;0.10;;;-0.50;1.00;;;;;;6082521;23;20415;-78
2022/12/14 06:54:51;;;;;;;8.50;7.93;;;-0.40;1.00;;;;;;6083925;23;20467;-79
2022/12/14 06:57:19;;;;;;;0.50;0.20;;;-0.40;1.00;;;;;;6086637;23;20412;-80
2022/12/14 06:59:48;;;;;;;0.50;0.10;;;-0.50;1.00;;;;;;6081128;23;20448;-78
2022/12/14 07:02:16;;;;;;;0.50;0.20;;;-0.40;1.00;;;;;;6078211;23;21008;-77
2022/12/14 07:04:44;;;;;;;0.50;0.20;;;-0.30;1.00;;;;;;6078692;23;20439;-78
2022/12/14 07:07:12;;;;;;;0.50;0.10;;;-0.40;1.00;;;;;;6081789;23;20418;-79
2022/12/14 07:09:40;;;;;;;0.87;0.37;;;-0.30;1.00;;;;;;6084542;23;20455;-80
2022/12/14 07:12:08;;;;;;;0.50;0.10;;;-0.30;1.00;;;;;;6083179;23;20435;-77
2022/12/14 07:14:36;;;;;;;0.50;0.10;;;-0.30;1.00;;;;;;6085503;23;20638;-79
2022/12/14 07:17:06;;;;;;;0.50;0.23;;;-0.30;1.00;;;;;;6085595;23;20452;-78
2022/12/14 07:19:34;;;;;;;0.60;0.60;;;-0.20;1.00;;;;;;6080608;23;20790;-80
2022/12/14 07:22:03;;;;;;;1.13;1.13;;;-0.30;1.00;;;;;;6076015;23;20663;-80
2022/12/14 07:24:31;;;;;;;0.50;0.20;;;-0.10;1.00;;;;;;6079201;23;20543;-79
2022/12/14 07:26:59;;;;;;;0.50;0.30;;;-0.20;1.00;;;;;;6085390;23;20431;-76
2022/12/14 07:29:27;;;;;;;0.50;0.10;;;-0.20;1.00;;;;;;6083750;23;20696;-79
2022/12/14 07:32:01;;;;;;;0.50;0.10;;;-0.20;1.00;;;;;;6077641;23;20404;-77
2022/12/14 07:34:30;;;;;;;0.50;0.10;;;-0.20;1.00;;;;;;6075209;23;20458;-80
2022/12/14 07:36:58;;;;;;;0.50;0.30;;;-0.20;1.00;;;;;;6075617;23;20868;-79
2022/12/14 07:39:26;;;;;;;0.50;0.10;;;-0.20;1.00;;;;;;6079936;23;20503;-78
2022/12/14 07:41:55;;;;;;;0.50;0.10;;;-0.10;1.00;;;;;;6077201;23;20854;-79
2022/12/14 07:44:22;;;;;;;0.50;0.10;;;-0.10;1.00;;;;;;6075852;23;20434;-79
2022/12/14 07:46:50;;;;;;;0.50;0.10;;;-0.10;1.00;;;;;;6078950;23;20408;-78
2022/12/14 07:49:25;;;;;;;2.80;0.77;;;-0.10;1.00;;;;;;6081658;23;20435;-78
2022/12/14 07:51:54;;;;;;;0.50;0.10;;;-0.20;1.00;;;;;;6077398;23;20762;-76
2022/12/14 07:54:23;;;;;;;0.50;0.10;;;-0.20;1.00;;;;;;6079618;23;20523;-76
2022/12/14 07:56:51;;;;;;;0.50;0.10;;;-0.10;1.00;;;;;;6080091;23;20419;-77
2022/12/14 07:59:21;;;;;;;0.50;0.10;;;0.40;1.00;;;;;;6080462;23;20408;-78
2022/12/14 08:01:49;;;;;;;0.97;0.47;;;-0.10;1.00;;;;;;6081323;23;20454;-79
2022/12/14 08:04:19;;;;;;;0.50;0.10;;;0.00;1.00;;;;;;6080373;23;20830;-78
2022/12/14 08:06:48;;;;;;;0.50;0.10;;;0.00;1.00;;;;;;6083823;23;20418;-79
2022/12/14 08:09:18;;;;;;;0.60;0.23;;;0.10;1.00;;;;;;6091443;23;20430;-78
2022/12/14 08:11:47;;;;;;;0.50;0.10;;;0.00;1.00;;;;;;6092783;23;20380;-77
2022/12/14 08:14:17;;;;;;;0.50;0.20;;;0.20;1.00;;;;;;6085869;23;20427;-80
2022/12/14 08:16:46;;;;;;;0.50;0.10;;;0.00;1.00;;;;;;6077700;23;20510;-78
2022/12/14 08:19:14;;;;;;;0.60;0.30;;;0.00;1.00;;;;;;6079717;23;20447;-79
2022/12/14 08:21:44;;;;;;;0.50;0.10;;;0.00;1.00;;;;;;6078159;23;20925;-80
2022/12/14 08:24:12;;;;;;;0.50;0.10;;;0.00;1.00;;;;;;6075893;23;20404;-78
2022/12/14 08:26:42;;;;;;;0.50;0.10;;;0.00;1.00;;;;;;6086258;23;20439;-78
2022/12/14 08:29:14;;;;;;;0.50;0.20;;;0.00;1.00;;;;;;6082467;23;20416;-77
2022/12/14 08:31:43;;;;;;;0.50;0.10;;;0.00;1.00;;;;;;6085469;23;20403;-78
2022/12/14 08:34:11;;;;;;;0.50;0.20;;;0.00;1.00;;;;;;6087095;23;20392;-80
2022/12/14 08:36:39;;;;;;;0.50;0.10;;;0.00;1.00;;;;;;6086158;23;20412;-77
2022/12/14 08:39:10;;;;;;;0.50;0.10;;;-0.10;1.00;;;;;;6083105;23;20423;-78
2022/12/14 08:41:38;;;;;;;0.50;0.20;;;-0.10;1.00;;;;;;6085236;23;20443;-76
2022/12/14 08:44:09;;;;;;;0.50;0.10;;;-0.10;1.00;;;;;;6090809;23;20400;-77
2022/12/14 08:46:38;;;;;;;0.50;0.10;;;-0.10;1.00;;;;;;6091070;23;20452;-77
2022/12/14 08:49:05;;;;;;;2.30;2.20;;;-0.10;1.00;;;;;;6089118;23;20444;-76
2022/12/14 08:51:37;;;;;;;0.50;0.10;;;-0.10;1.00;;;;;;6086854;23;20681;-77
2022/12/14 08:54:05;;;;;;;0.50;0.20;;;0.00;1.00;;;;;;6089417;23;20406;-78
2022/12/14 08:56:33;;;;;;;0.80;0.43;;;0.00;1.00;;;;;;6090411;23;20404;-77
2022/12/14 08:59:00;;;;;;;0.50;0.10;;;0.00;1.00;;;;;;6088709;23;20410;-77
2022/12/14 09:01:31;;;;;;;2.13;1.97;;;-0.10;1.00;;;;;;6086262;23;20420;-78
2022/12/14 09:04:03;;;;;;;0.50;0.10;;;-0.10;1.00;;;;;;6083734;23;20404;-78
2022/12/14 09:06:35;;;;;;;0.50;0.10;;;-0.10;1.00;;;;;;6085683;23;20439;-76
2022/12/14 09:09:04;;;;;;;0.50;0.10;;;-0.10;1.00;;;;;;6080038;23;20439;-77
2022/12/14 09:11:41;;;;;;;0.63;0.40;;;-0.10;1.00;;;;;;6079061;23;20395;-77
2022/12/14 09:14:09;;;;;;;0.50;0.10;;;-0.10;1.00;;;;;;6080851;23;20418;-79
2022/12/14 09:16:38;;;;;;;0.80;0.80;;;-0.10;1.00;;;;;;6086945;23;20418;-77
2022/12/14 09:19:07;;;;;;;0.50;0.10;;;-0.10;1.00;;;;;;6083435;23;20395;-78
2022/12/14 09:21:34;;;;;;;0.50;0.10;;;-0.10;1.00;;;;;;6073757;23;20410;-78
2022/12/14 09:24:05;;;;;;;1.70;1.60;;;-0.10;1.00;;;;;;6079478;23;20432;-77
2022/12/14 09:26:33;;;;;;;0.50;0.10;;;-0.10;1.00;;;;;;6078687;23;20424;-77
2022/12/14 09:29:01;;;;;;;0.50;0.10;;;-0.10;1.00;;;;;;6080079;23;20481;-78
2022/12/14 09:31:29;;;;;;;0.50;0.10;;;0.00;1.00;;;;;;6079404;23;20404;-76
2022/12/14 09:33:58;;;;;;;0.50;0.20;;;0.00;1.00;;;;;;6079672;23;20408;-76
2022/12/14 09:36:27;;;;;;;0.50;0.10;;;0.00;1.00;;;;;;6079961;23;20432;-77
2022/12/14 09:38:56;;;;;;;0.50;0.30;;;;;;;;;;6079441;23;20403;-80
2022/12/14 09:41:48;;;;;;;0.50;0.17;;;-0.90;1.00;;;;;;6078883;23;20419;-80
2022/12/14 09:44:25;;;;;;;2.37;1.60;;;0.00;1.00;;;;;;6082501;23;20424;-78
2022/12/14 09:47:00;;;;;;;1.77;1.20;;;-0.20;1.00;;;;;;6081442;23;20490;-77
2022/12/14 09:49:34;;;;;;;0.50;0.20;;;-0.20;1.00;;;;;;6081683;23;20429;-79
2022/12/14 09:52:04;;;;;;;1.17;0.77;;;-0.20;1.00;;;;;;6083546;23;20419;-78
2022/12/14 09:54:35;;;;;;;0.50;0.10;;;-0.20;1.00;;;;;;6075774;23;20455;-79
2022/12/14 09:57:10;;;;;;;2.73;2.53;;;-0.20;1.00;;;;;;6077810;23;20396;-77
2022/12/14 09:59:38;;;;;;;0.50;0.10;;;-0.20;1.00;;;;;;6079396;23;20411;-77
2022/12/14 10:02:23;;;;;;;0.80;0.73;;;-0.20;1.00;;;;;;6087401;23;20407;-77
2022/12/14 10:05:20;;;;;;;0.77;0.73;;;-0.20;1.00;;;;;;6091328;23;20427;-77
2022/12/14 10:07:56;;;;;;;0.50;0.10;;;-0.20;1.00;;;;;;6090534;23;20406;-78
2022/12/14 10:10:28;;;;;;;2.57;2.37;;;-0.10;1.00;;;;;;6090999;23;20388;-76
2022/12/14 10:13:03;;;;;;;1.20;1.10;;;-0.10;1.00;;;;;;6089848;23;20403;-77
2022/12/14 10:15:40;;;;;;;1.50;1.40;;;-0.20;1.00;;;;;;6090862;23;20465;-78
2022/12/14 10:18:30;;;;;;;0.50;0.10;;;-0.30;1.00;;;;;;6085928;23;20431;-77
2022/12/14 10:21:22;;;;;;;0.50;0.10;;;-0.30;1.00;;;;;;6086234;23;20396;-75
2022/12/14 10:23:54;;;;;;;0.80;0.60;;;-0.10;1.00;;;;;;6087699;23;20447;-75
2022/12/14 10:26:26;;;;;;;1.27;1.03;;;-0.10;1.00;;;;;;6087095;23;20521;-78
2022/12/14 10:29:03;;;;;;;3.03;1.27;;;1.40;1.00;;;;;;6085975;23;20464;-76
2022/12/14 10:31:37;;;;;;;3.00;2.80;;;-0.10;1.00;;;;;;6082762;23;20419;-76
2022/12/14 10:34:17;;;;;;;0.50;0.30;;;-0.20;1.00;;;;;;6077422;23;20885;-76
2022/12/14 10:36:53;;;;;;;0.50;0.27;;;-0.20;1.00;;;;;;6076069;23;20410;-76
2022/12/14 10:39:30;;;;;;;0.60;0.30;;;-0.20;1.00;;;;;;6075541;23;20910;-77
2022/12/14 10:42:04;;;;;;;0.50;0.10;;;-0.20;1.00;;;;;;6073576;23;20458;-78
2022/12/14 10:44:39;;;;;;;0.50;0.10;;;-0.20;1.00;;;;;;6072783;23;20952;-78
2022/12/14 10:47:14;;;;;;;0.50;0.10;;;-0.20;1.00;;;;;;6071289;23;20410;-76
2022/12/14 10:49:50;;;;;;;0.50;0.20;;;-0.20;1.00;;;;;;6072072;23;20395;-77
2022/12/14 10:52:22;;;;;;;0.50;0.37;;;-0.20;1.00;;;;;;6070529;23;20396;-75
2022/12/14 10:54:53;;;;;;;1.97;1.87;;;-0.10;1.00;;;;;;6068986;23;20428;-77
2022/12/14 10:57:25;;;;;;;0.50;0.10;;;-0.10;1.00;;;;;;6071074;23;20896;-76
2022/12/14 10:59:54;;;;;;;0.50;0.10;;;0.00;1.00;;;;;;6072722;23;20404;-76
2022/12/14 11:02:39;;;;;;;1.50;1.40;;;0.00;1.00;;;;;;6073227;23;20458;-75
2022/12/14 11:05:19;;;;;;;0.50;0.10;;;0.10;1.00;;;;;;6073078;23;20424;-75
2022/12/14 11:07:49;;;;;;;0.50;0.20;;;0.10;1.00;;;;;;6072793;23;20398;-76
2022/12/14 11:10:18;;;;;;;0.50;0.10;;;0.10;1.00;;;;;;6073656;23;20419;-77
2022/12/14 11:13:00;;;;;;;1.50;1.40;;;0.10;1.00;;;;;;6080168;23;20451;-75
2022/12/14 11:15:34;;;;;;;0.50;0.10;;;0.10;1.00;;;;;;6076481;23;20469;-72
2022/12/14 11:18:06;;;;;;;0.50;0.10;;;0.10;1.00;;;;;;6067706;23;20479;-73
2022/12/14 11:20:34;;;;;;;0.50;0.20;;;0.10;1.00;;;;;;6067441;23;20427;-73
2022/12/14 11:23:16;;;;;;;0.50;0.10;;;0.10;1.00;;;;;;6066627;23;20958;-73
2022/12/14 11:25:47;;;;;;;0.50;0.20;;;0.10;1.00;;;;;;6067602;23;20766;-72
2022/12/14 11:28:28;;;;;;;3.07;0.60;;;0.10;1.00;;;;;;6067206;23;20388;-73
2022/12/14 11:31:05;;;;;;;0.93;0.67;;;0.10;1.00;;;;;;6067227;23;20416;-73
2022/12/14 11:33:39;;;;;;;0.60;0.43;;;0.10;1.00;;;;;;6066348;23;20415;-73
2022/12/14 11:36:08;;;;;;;0.50;0.10;;;0.10;1.00;;;;;;6068157;23;20527;-73
2022/12/14 11:38:38;;;;;;;1.43;1.13;;;0.10;1.00;;;;;;6066772;23;20415;-73
2022/12/14 11:41:06;;;;;;;0.50;0.10;;;0.10;1.00;;;;;;6067659;23;20415;-72
2022/12/14 11:43:39;;;;;;;0.50;0.20;;;0.10;1.00;;;;;;6067656;23;20438;-72
2022/12/14 11:46:07;;;;;;;0.50;0.10;;;0.10;1.00;;;;;;6068402;23;20427;-72
2022/12/14 11:48:38;;;;;;;0.50;0.20;;;0.10;1.00;;;;;;6069255;23;20507;-73
2022/12/14 11:51:11;;;;;;;1.83;0.40;;;0.10;1.00;;;;;;6069014;23;20971;-73
2022/12/14 11:53:41;;;;;;;3.37;3.00;;;0.20;1.00;;;;;;6068034;23;20400;-72
2022/12/14 11:56:15;;;;;;;0.60;0.30;;;0.20;1.00;;;;;;6067585;23;20443;-72
2022/12/14 11:58:48;;;;;;;0.50;0.30;;;0.20;1.00;;;;;;6067267;23;20889;-74
2022/12/14 12:01:19;;;;;;;0.50;0.10;;;0.30;1.00;;;;;;6066587;23;20883;-72
2022/12/14 12:03:50;;;;;;;0.50;0.10;;;0.30;1.00;;;;;;6066365;23;20448;-73
2022/12/14 12:06:22;;;;;;;0.50;0.20;;;0.40;1.00;;;;;;6066743;23;20431;-73
2022/12/14 12:08:56;;;;;;;0.50;0.20;;;0.40;1.00;;;;;;6067049;23;20944;-72
2022/12/14 12:11:28;;;;;;;0.60;0.40;;;0.40;1.00;;;;;;6066894;23;20434;-72
2022/12/14 12:14:00;;;;;;;0.50;0.10;;;0.40;1.00;;;;;;6066899;23;20411;-73
2022/12/14 12:16:29;;;;;;;0.50;0.13;;;0.50;1.00;;;;;;6067129;23;20752;-73
2022/12/14 12:19:04;;;;;;;2.10;2.00;;;0.50;1.00;;;;;;6067743;23;20408;-72
2022/12/14 12:21:41;;;;;;;0.50;0.20;;;0.60;1.00;;;;;;6067749;23;20392;-72
2022/12/14 12:24:17;;;;;;;0.50;0.10;;;0.60;1.00;;;;;;6066288;23;20428;-73
2022/12/14 12:26:49;;;;;;;0.50;0.10;;;0.60;1.00;;;;;;6067062;23;20904;-72
2022/12/14 12:29:25;;;;;;;0.50;0.23;;;0.50;1.00;;;;;;6067453;23;20408;-72
2022/12/14 12:31:57;;;;;;;0.60;0.30;;;0.50;1.00;;;;;;6067572;23;20388;-72
2022/12/14 12:34:28;;;;;;;0.60;0.20;;;0.50;1.00;;;;;;6067171;23;20455;-73
2022/12/14 12:36:59;;;;;;;0.50;0.10;;;0.40;1.00;;;;;;6067635;23;20462;-74
2022/12/14 12:39:55;;;;;;;0.70;0.70;;;0.40;1.00;;;;;;6067405;23;20742;-73
2022/12/14 12:42:32;;;;;;;0.50;0.10;;;0.40;1.00;;;;;;6067368;23;20395;-74
2022/12/14 12:45:05;;;;;;;1.03;0.77;;;0.30;1.00;;;;;;6067341;23;20529;-73
2022/12/14 12:47:37;;;;;;;0.63;0.63;;;0.30;1.00;;;;;;6066983;23;20408;-72
2022/12/14 12:50:17;;;;;;;0.60;0.30;;;0.30;1.00;;;;;;6065826;23;20408;-73
2022/12/14 12:52:56;;;;;;;0.50;0.10;;;0.20;1.00;;;;;;6063101;23;20467;-73
2022/12/14 12:55:35;;;;;;;13.93;4.00;;;0.20;1.00;;;;;;6064241;23;20471;-72
2022/12/14 12:58:08;;;;;;;2.30;2.10;;;0.20;1.00;;;;;;6066104;23;20407;-72
2022/12/14 13:00:37;;;;;;;0.50;0.10;;;0.30;1.00;;;;;;6066901;23;20451;-74
2022/12/14 13:03:09;;;;;;;0.50;0.10;;;0.20;1.00;;;;;;6066373;23;20408;-73
2022/12/14 13:05:40;;;;;;;0.50;0.10;;;0.30;1.00;;;;;;6066531;23;20459;-73
2022/12/14 13:08:20;;;;;;;0.50;0.13;;;0.20;1.00;;;;;;6067138;23;20391;-73
2022/12/14 13:10:53;;;;;;;0.50;0.20;;;0.30;1.00;;;;;;6067109;23;20392;-72
2022/12/14 13:13:45;;;;;;;0.50;0.10;;;0.40;1.00;;;;;;6066701;23;20407;-73
2022/12/14 13:16:17;;;;;;;0.50;0.10;;;0.40;1.00;;;;;;6066061;23;20503;-72
2022/12/14 13:18:55;;;;;;;0.50;0.20;;;0.40;1.00;;;;;;6067412;23;20931;-73
2022/12/14 13:21:46;;;;;;;0.50;0.10;;;0.40;1.00;;;;;;6067802;23;20392;-72
2022/12/14 13:24:18;;;;;;;0.50;0.10;;;0.40;1.00;;;;;;6063953;23;20427;-73
2022/12/14 13:27:20;;;;;;;0.50;0.10;;;0.40;1.00;;;;;;6066471;23;20499;-73
2022/12/14 13:30:03;;;;;;;0.50;0.10;;;0.40;1.00;;;;;;6066855;23;20490;-74
2022/12/14 13:32:47;;;;;;;0.50;0.10;;;0.50;1.00;;;;;;6066353;23;20459;-74
2022/12/14 13:35:35;;;;;;;1.27;0.60;;;0.50;1.00;;;;;;6066480;23;20431;-72
2022/12/14 13:38:21;;;;;;;0.50;0.30;;;0.50;1.00;;;;;;6065089;23;20415;-73
2022/12/14 13:41:15;;;;;;;0.50;0.10;;;0.50;1.00;;;;;;6068510;23;20384;-73
2022/12/14 13:44:01;;;;;;;0.50;0.10;;;0.50;1.00;;;;;;6067787;23;20409;-72
2022/12/14 13:46:30;;;;;;;0.50;0.10;;;0.60;1.00;;;;;;6068077;23;20434;-72
2022/12/14 13:49:01;;;;;;;0.50;0.10;;;0.60;1.00;;;;;;6067159;23;20772;-73
2022/12/14 13:51:32;;;;;;;0.50;0.10;;;0.60;1.00;;;;;;6066925;23;20489;-73
2022/12/14 13:54:03;;;;;;;1.27;1.17;;;0.60;1.00;;;;;;6068290;23;20490;-74
2022/12/14 13:56:33;;;;;;;0.50;0.10;;;0.60;1.00;;;;;;6067559;23;20431;-73
2022/12/14 13:59:06;;;;;;;0.93;0.93;;;0.60;1.00;;;;;;6067975;23;20716;-72
2022/12/14 14:01:56;;;;;;;0.50;0.20;;;0.60;1.00;;;;;;6067957;23;20411;-73
2022/12/14 14:04:25;;;;;;;0.50;0.10;;;;;;;;;;6068051;23;20747;-73
2022/12/14 14:06:56;;;;;;;0.60;0.60;;;0.60;1.00;;;;;;6067634;23;20734;-72
2022/12/14 14:09:59;;;;;;;0.50;0.10;;;0.60;1.00;;;;;;6067925;23;20421;-72
2022/12/14 14:12:50;;;;;;;0.50;0.30;;;0.60;1.00;;;;;;6067710;23;20450;-73
2022/12/14 14:15:50;;;;;;;0.77;0.77;;;0.60;1.00;;;;;;6067653;23;20443;-72
2022/12/14 14:18:48;;;;;;;0.50;0.10;;;0.60;1.00;;;;;;6033329;23;20463;-73
2022/12/14 14:21:32;;;;;;;0.50;0.10;;;0.60;1.00;;;;;;6067851;23;20400;-73
2022/12/14 14:24:21;;;;;;;0.50;0.10;;;0.50;1.00;;;;;;6067604;23;20861;-73
2022/12/14 14:27:09;;;;;;;0.50;0.10;;;0.60;1.00;;;;;;6069146;23;20533;-73
2022/12/14 14:29:44;;;;;;;0.50;0.10;;;0.60;1.00;;;;;;6071032;23;20412;-73
2022/12/14 14:32:33;;;;;;;0.50;0.10;;;0.60;1.00;;;;;;6068394;23;20391;-73
2022/12/14 14:35:02;;;;;;;4.10;2.63;;;0.60;1.00;;;;;;6067713;23;20428;-73
2022/12/14 14:37:36;;;;;;;0.50;0.10;;;0.60;1.00;;;;;;6068110;23;20412;-71
2022/12/14 14:40:18;;;;;;;0.50;0.10;;;0.60;1.00;;;;;;6068201;23;20411;-73
2022/12/14 14:43:07;;;;;;;0.50;0.10;;;0.60;1.00;;;;;;6067978;23;20419;-73
2022/12/14 14:45:40;;;;;;;0.50;0.10;;;0.60;1.00;;;;;;6067730;23;20478;-76
2022/12/14 14:48:21;;;;;;;0.50;0.10;;;0.50;1.00;;;;;;6068095;23;20408;-72
2022/12/14 14:51:00;;;;;;;0.50;0.10;;;0.50;1.00;;;;;;6068065;23;20419;-72
2022/12/14 14:53:31;;;;;;;0.50;0.10;;;0.50;1.00;;;;;;6067910;23;20404;-72
2022/12/14 14:56:12;;;;;;;0.83;0.83;;;0.40;1.00;;;;;;6068415;23;20460;-72
2022/12/14 14:58:41;;;;;;;0.50;0.10;;;0.40;1.00;;;;;;6067655;23;20419;-73
2022/12/14 15:01:23;;;;;;;0.50;0.10;;;0.40;1.00;;;;;;6067208;23;20408;-73
2022/12/14 15:03:57;;;;;;;0.50;0.20;;;0.40;1.00;;;;;;6067694;23;20416;-73
2022/12/14 15:06:28;;;;;;;0.50;0.10;;;0.40;1.00;;;;;;6067856;23;20850;-73
2022/12/14 15:09:00;;;;;;;0.50;0.10;;;0.30;1.00;;;;;;6068186;23;20416;-74
2022/12/14 15:11:41;;;;;;;0.50;0.10;;;0.30;1.00;;;;;;6067811;23;20396;-72
2022/12/14 15:14:30;;;;;;;1.73;1.63;;;0.20;1.00;;;;;;6067516;23;20408;-73
2022/12/14 15:16:58;;;;;;;0.50;0.10;;;0.20;1.00;;;;;;6067858;23;20416;-73
2022/12/14 15:19:32;;;;;;;0.50;0.10;;;0.20;1.00;;;;;;6068198;23;20432;-72
2022/12/14 15:22:04;;;;;;;0.50;0.10;;;0.20;1.00;;;;;;6067051;23;20896;-72
2022/12/14 15:24:36;;;;;;;0.50;0.10;;;0.30;1.00;;;;;;6067174;23;20412;-73
2022/12/14 15:27:18;;;;;;;0.50;0.10;;;0.30;1.00;;;;;;6067967;23;20392;-73
2022/12/14 15:29:47;;;;;;;0.50;0.10;;;0.30;1.00;;;;;;6067963;23;20778;-73
2022/12/14 15:32:20;;;;;;;0.50;0.10;;;0.20;1.00;;;;;;6067255;23;20434;-73
2022/12/14 15:34:55;;;;;;;1.23;0.93;;;0.10;1.00;;;;;;6066939;23;20428;-73
2022/12/14 15:37:26;;;;;;;0.50;0.10;;;0.10;1.00;;;;;;6067084;23;20865;-72
2022/12/14 15:40:02;;;;;;;0.50;0.10;;;0.00;1.00;;;;;;6067277;23;20475;-72
2022/12/14 15:42:30;;;;;;;0.50;0.10;;;0.00;1.00;;;;;;6066970;23;20407;-72
2022/12/14 15:45:07;;;;;;;0.50;0.10;;;0.00;1.00;;;;;;6068116;23;20750;-72
2022/12/14 15:47:34;;;;;;;0.50;0.10;;;-0.10;1.00;;;;;;6068508;23;20470;-72
2022/12/14 15:50:23;;;;;;;0.50;0.10;;;-0.10;1.00;;;;;;6067970;23;20407;-73
2022/12/14 15:52:54;;;;;;;0.50;0.10;;;-0.10;1.00;;;;;;6067442;23;20408;-72
2022/12/14 15:55:31;;;;;;;0.50;0.10;;;-0.10;1.00;;;;;;6067426;23;20487;-72
2022/12/14 15:58:06;;;;;;;0.50;0.10;;;-0.10;1.00;;;;;;6067446;23;20408;-73
2022/12/14 16:00:35;;;;;;;0.50;0.20;;;-0.20;1.00;;;;;;6067694;23;20407;-72
2022/12/14 16:03:09;;;;;;;0.50;0.10;;;-0.20;1.00;;;;;;6067006;23;20471;-72
2022/12/14 16:05:38;;;;;;;0.50;0.10;;;-0.20;1.00;;;;;;6068457;23;20459;-73
2022/12/14 16:08:09;;;;;;;0.50;0.10;;;-0.10;1.00;;;;;;6067797;23;20720;-73
2022/12/14 16:10:37;;;;;;;0.50;0.10;;;-0.20;1.00;;;;;;6068297;23;20487;-73
2022/12/14 16:13:14;;;;;;;0.50;0.10;;;-0.20;1.00;;;;;;6068304;23;20415;-72
2022/12/14 16:15:45;;;;;;;0.67;0.67;;;-0.30;1.00;;;;;;6068254;23;20431;-72
2022/12/14 16:18:17;;;;;;;0.50;0.10;;;-0.30;1.00;;;;;;6067461;23;20439;-73
2022/12/14 16:20:56;;;;;;;0.50;0.10;;;-0.20;1.00;;;;;;6068629;23;20783;-72
2022/12/14 16:23:27;;;;;;;0.50;0.10;;;-0.20;1.00;;;;;;6068797;23;20411;-73
2022/12/14 16:25:58;;;;;;;0.50;0.10;;;-0.20;1.00;;;;;;6068262;23;20507;-74
2022/12/14 16:28:29;;;;;;;0.50;0.10;;;-0.30;1.00;;;;;;6068120;23;20781;-73
2022/12/14 16:31:01;;;;;;;0.50;0.17;;;-0.30;1.00;;;;;;6067176;23;20396;-74
2022/12/14 16:33:31;;;;;;;0.50;0.10;;;-0.30;1.00;;;;;;6067492;23;20419;-73
2022/12/14 16:36:05;;;;;;;0.60;0.43;;;-0.30;1.00;;;;;;6067252;23;20450;-73
2022/12/14 16:38:38;;;;;;;0.63;0.57;;;-0.20;1.00;;;;;;6068850;23;20417;-74
2022/12/14 16:41:07;;;;;;;0.50;0.10;;;-0.20;1.00;;;;;;6070337;23;20411;-75
2022/12/14 16:43:36;;;;;;;0.50;0.10;;;-0.20;1.00;;;;;;6067452;23;20825;-76
2022/12/14 16:46:18;;;;;;;1.27;0.87;;;-0.30;1.00;;;;;;6068191;23;20448;-73
2022/12/14 16:49:18;;;;;;;0.50;0.10;;;-0.20;1.00;;;;;;6066056;23;20885;-73
2022/12/14 16:51:57;;;;;;;0.50;0.10;;;-0.20;1.00;;;;;;6069393;23;20404;-73
2022/12/14 16:54:34;;;;;;;0.50;0.10;;;-0.20;1.00;;;;;;6067086;23;20460;-73
2022/12/14 16:57:07;;;;;;;0.50;0.10;;;-0.20;1.00;;;;;;6067169;23;20403;-72
2022/12/14 16:59:41;;;;;;;0.50;0.20;;;-0.20;1.00;;;;;;6068448;23;20816;-73
2022/12/14 17:02:28;;;;;;;0.50;0.10;;;-0.20;1.00;;;;;;6067318;23;20392;-72
2022/12/14 17:04:57;;;;;;;0.50;0.10;;;-0.20;1.00;;;;;;6067498;23;20431;-73
2022/12/14 17:07:29;;;;;;;0.50;0.10;;;-0.20;1.00;;;;;;6067076;23;20448;-73
2022/12/14 17:09:56;;;;;;;0.50;0.10;;;-0.20;1.00;;;;;;6065980;23;20783;-73
2022/12/14 17:12:26;;;;;;;0.50;0.10;;;-0.10;1.00;;;;;;6066470;23;20408;-75
2022/12/14 17:14:54;;;;;;;0.50;0.10;;;-0.20;1.00;;;;;;6068991;23;20444;-72
2022/12/14 17:17:28;;;;;;;0.50;0.10;;;2.50;1.00;;;;;;6069230;23;20498;-72
2022/12/14 17:19:56;;;;;;;0.50;0.10;;;-0.10;1.00;;;;;;6068812;23;20398;-74
2022/12/14 17:22:28;;;;;;;0.50;0.10;;;-0.10;1.00;;;;;;6069038;23;20522;-73
2022/12/14 17:24:58;;;;;;;0.50;0.10;;;-0.10;1.00;;;;;;6070105;23;20434;-73
2022/12/14 17:27:26;;;;;;;0.50;0.10;;;-0.10;1.00;;;;;;6069434;23;20990;-74
2022/12/14 17:29:55;;;;;;;0.50;0.10;;;-0.10;1.00;;;;;;6069288;23;20404;-73
2022/12/14 17:32:28;;;;;;;0.50;0.10;;;-0.10;1.00;;;;;;6068342;23;20408;-72
2022/12/14 17:34:56;;;;;;;0.60;0.50;;;-0.10;1.00;;;;;;6068920;23;20423;-72